Time;durP1;ratioP1;P1;durP2;ratioP2;P2;SDS_P1;SDS_P2;PMS_P1;PMS_P2;Temp;Humidity;BMP_temperature;BMP_pressure;BME280_temperature;BME280_humidity;BME280_pressure;Samples;Min_cycle;Max_cycle;Signal;HPM_P1;HPM_P2
2021/08/18 00:00:44;;;;;;;17.80;11.00;;;;;;;16.73;93.71;96545.03;5074716;28;20405;-64
2021/08/18 00:03:10;;;;;;;15.90;11.47;;;;;;;16.59;93.79;96538.63;5074297;28;20460;-59
2021/08/18 00:05:35;;;;;;;16.63;11.53;;;;;;;16.74;93.30;96538.69;5074498;28;20498;-59
2021/08/18 00:08:01;;;;;;;18.30;10.40;;;;;;;16.75;93.09;96530.47;5074272;28;20887;-64
2021/08/18 00:10:28;;;;;;;16.30;10.57;;;;;;;16.83;92.78;96532.59;5073766;28;20540;-59
2021/08/18 00:12:54;;;;;;;17.90;10.23;;;;;;;16.67;93.07;96528.28;5074183;28;20408;-64
2021/08/18 00:15:19;;;;;;;14.90;10.30;;;;;;;16.77;92.64;96531.00;5074438;28;20429;-64
2021/08/18 00:17:45;;;;;;;16.30;10.60;;;;;;;16.78;92.50;96537.91;5074487;28;20178;-64
2021/08/18 00:20:11;;;;;;;18.57;11.30;;;;;;;16.69;92.76;96534.16;5074213;28;20178;-59
2021/08/18 00:22:37;;;;;;;16.20;11.07;;;;;;;16.72;92.14;96530.19;5073844;28;20894;-64
2021/08/18 00:25:04;;;;;;;14.63;10.20;;;;;;;16.60;93.07;96530.38;5071365;28;20467;-60
2021/08/18 00:27:30;;;;;;;18.77;10.90;;;;;;;16.75;92.90;96537.63;5054281;28;20176;-64
2021/08/18 00:29:55;;;;;;;15.73;11.13;;;;;;;16.61;92.92;96529.34;5054109;28;20954;-64
2021/08/18 00:32:22;;;;;;;15.60;10.37;;;;;;;16.66;93.22;96531.22;5054031;28;20245;-59
2021/08/18 00:34:48;;;;;;;15.23;10.60;;;;;;;16.57;93.54;96524.81;5053624;28;20835;-61
2021/08/18 00:37:13;;;;;;;18.50;10.70;;;;;;;16.72;92.92;96530.19;5053206;28;20183;-63
2021/08/18 00:39:39;;;;;;;17.60;11.00;;;;;;;16.73;92.56;96527.25;5060151;28;20190;-59
2021/08/18 00:42:05;;;;;;;18.47;11.00;;;;;;;16.77;91.98;96531.00;5055280;28;20641;-59
2021/08/18 00:44:32;;;;;;;19.27;12.90;;;;;;;16.45;93.27;96527.63;5053617;28;20283;-59
2021/08/18 00:46:58;;;;;;;17.50;12.33;;;;;;;16.46;93.03;96532.69;5054020;28;20746;-59
2021/08/18 00:49:24;;;;;;;18.87;12.83;;;;;;;16.73;92.54;96523.81;5053714;28;20414;-60
2021/08/18 00:51:51;;;;;;;15.63;12.13;;;;;;;16.76;91.45;96529.38;5053831;28;20445;-64
2021/08/18 00:54:18;;;;;;;14.83;11.17;;;;;;;16.84;91.46;96518.28;5053200;28;20499;-59
2021/08/18 00:56:49;;;;;;;17.57;13.13;;;;;;;16.79;91.63;96515.63;5070647;28;20421;-64
2021/08/18 00:59:15;;;;;;;18.07;11.90;;;;;;;16.92;91.55;96517.75;5073593;28;20459;-59
2021/08/18 01:01:41;;;;;;;18.70;12.60;;;;;;;16.70;92.27;96522.50;5072519;28;20421;-58
2021/08/18 01:04:06;;;;;;;19.83;12.13;;;;;;;16.88;92.01;96515.91;5057883;28;20179;-59
2021/08/18 01:06:40;;;;;;;14.93;11.67;;;;;;;16.99;91.32;96512.22;5071832;28;20182;-59
2021/08/18 01:09:10;;;;;;;19.50;12.50;;;;;;;16.75;91.51;96511.88;5056320;28;20182;-63
2021/08/18 01:11:37;;;;;;;20.97;13.20;;;;;;;16.94;91.46;96513.00;5063229;28;20461;-63
2021/08/18 01:14:03;;;;;;;20.43;12.87;;;;;;;16.92;91.06;96509.03;5072013;28;20418;-64
2021/08/18 01:16:40;;;;;;;24.07;14.03;;;;;;;16.75;91.03;96519.84;5066356;28;20429;-59
2021/08/18 01:19:07;;;;;;;23.00;13.53;;;;;;;16.82;90.67;96523.06;5072230;28;20178;-59
2021/08/18 01:21:34;;;;;;;19.67;12.87;;;;;;;16.54;90.61;96528.75;5072559;28;20413;-59
2021/08/18 01:24:01;;;;;;;18.87;12.97;;;;;;;16.67;90.17;96514.25;5082580;28;20768;-60
2021/08/18 01:26:29;;;;;;;20.10;13.63;;;;;;;16.52;90.20;96522.13;5073275;28;20492;-64
2021/08/18 01:28:56;;;;;;;23.07;14.00;;;;;;;16.32;91.68;96525.47;5073429;28;20401;-59
2021/08/18 01:31:22;;;;;;;17.30;13.40;;;;;;;16.40;91.39;96517.81;5072006;28;20465;-64
2021/08/18 01:33:48;;;;;;;20.77;14.10;;;;;;;16.29;91.62;96516.16;5072775;28;20787;-64
2021/08/18 01:36:13;;;;;;;18.27;12.90;;;;;;;16.41;91.54;96522.03;5061949;28;20681;-63
2021/08/18 01:38:39;;;;;;;21.20;13.17;;;;;;;16.40;91.96;96509.03;5065785;28;20240;-59
2021/08/18 01:41:04;;;;;;;19.87;15.47;;;;;;;16.44;91.57;96526.03;5053065;28;20199;-59
2021/08/18 01:43:30;;;;;;;19.80;13.43;;;;;;;16.32;92.62;96520.94;5052719;28;20179;-59
2021/08/18 01:45:55;;;;;;;22.33;12.83;;;;;;;16.32;92.36;96512.97;5052820;28;20227;-59
2021/08/18 01:48:23;;;;;;;25.57;14.43;;;;;;;16.40;92.14;96525.75;5051757;28;20175;-59
2021/08/18 01:50:52;;;;;;;20.97;14.80;;;;;;;16.29;92.05;96510.03;5057186;28;20206;-59
2021/08/18 01:53:23;;;;;;;22.60;14.03;;;;;;;16.32;92.21;96512.19;5073050;28;20427;-64
2021/08/18 01:55:49;;;;;;;20.50;13.40;;;;;;;16.33;92.78;96516.44;5076815;28;20429;-59
2021/08/18 01:58:14;;;;;;;21.27;13.50;;;;;;;16.27;93.14;96514.81;5077079;28;20408;-59
2021/08/18 02:00:40;;;;;;;22.97;14.87;;;;;;;16.38;92.38;96519.09;5076910;28;20177;-64
2021/08/18 02:03:05;;;;;;;25.13;13.60;;;;;;;16.40;92.23;96519.66;5075278;28;20205;-63
2021/08/18 02:05:31;;;;;;;20.53;13.00;;;;;;;16.22;92.50;96515.59;5071780;28;20207;-64
2021/08/18 02:07:56;;;;;;;17.70;12.60;;;;;;;15.89;94.30;96510.59;5073726;28;20253;-59
2021/08/18 02:10:22;;;;;;;19.60;13.20;;;;;;;15.77;95.83;96515.31;5072293;28;20181;-63
2021/08/18 02:12:48;;;;;;;20.10;13.20;;;;;;;15.70;95.59;96519.22;5072896;28;20198;-62
2021/08/18 02:15:17;;;;;;;24.50;14.07;;;;;;;15.64;95.68;96507.78;5073117;28;20240;-63
2021/08/18 02:17:43;;;;;;;22.33;12.70;;;;;;;15.83;95.10;96510.84;5073184;28;20416;-63
2021/08/18 02:20:12;;;;;;;20.80;12.90;;;;;;;15.78;95.77;96503.63;5072092;28;20433;-59
2021/08/18 02:22:38;;;;;;;19.90;12.40;;;;;;;15.83;95.28;96506.34;5072995;28;20514;-63
2021/08/18 02:25:05;;;;;;;18.70;11.77;;;;;;;15.79;95.35;96499.16;5072936;28;21278;-58
2021/08/18 02:27:31;;;;;;;21.87;12.33;;;;;;;16.03;94.71;96501.16;5075208;28;20174;-59
2021/08/18 02:29:56;;;;;;;17.43;13.20;;;;;;;15.94;94.47;96502.69;5076368;28;20906;-59
2021/08/18 02:32:21;;;;;;;20.33;11.70;;;;;;;16.12;93.94;96504.13;5076328;28;20198;-59
2021/08/18 02:34:47;;;;;;;24.63;14.33;;;;;;;16.14;92.88;96502.03;5074004;28;20680;-63
2021/08/18 02:37:13;;;;;;;21.90;12.33;;;;;;;15.99;94.18;96509.88;5056500;28;20565;-59
2021/08/18 02:39:39;;;;;;;20.40;13.27;;;;;;;16.10;93.93;96507.06;5056232;28;20183;-63
2021/08/18 02:42:05;;;;;;;19.83;12.93;;;;;;;16.27;93.30;96498.91;5056301;28;20414;-63
2021/08/18 02:44:30;;;;;;;20.47;13.37;;;;;;;16.37;92.98;96505.06;5055726;28;20191;-63
2021/08/18 02:46:56;;;;;;;20.33;13.00;;;;;;;16.25;92.89;96507.09;5068031;28;20468;-59
2021/08/18 02:49:21;;;;;;;20.43;11.93;;;;;;;16.08;92.96;96509.16;5056158;28;20254;-63
2021/08/18 02:51:47;;;;;;;20.67;11.60;;;;;;;16.13;93.48;96513.69;5062833;28;20222;-59
2021/08/18 02:54:12;;;;;;;19.67;12.83;;;;;;;16.14;93.53;96510.75;5075523;28;20595;-59
2021/08/18 02:56:38;;;;;;;20.93;13.43;;;;;;;16.20;92.79;96512.41;5076012;28;20178;-63
2021/08/18 02:59:03;;;;;;;19.03;12.43;;;;;;;16.09;93.52;96516.03;5076131;28;20197;-59
2021/08/18 03:01:29;;;;;;;19.80;13.30;;;;;;;16.25;92.84;96503.69;5063603;28;20282;-59
2021/08/18 03:03:54;;;;;;;19.00;13.07;;;;;;;16.37;92.37;96507.72;5061689;28;20182;-59
2021/08/18 03:06:20;;;;;;;19.73;12.80;;;;;;;16.27;92.38;96502.34;5076014;28;20193;-59
2021/08/18 03:08:45;;;;;;;20.63;12.50;;;;;;;16.20;92.63;96507.09;5076062;28;20245;-58
2021/08/18 03:11:10;;;;;;;17.10;12.77;;;;;;;16.39;92.11;96507.47;5075751;28;20194;-63
2021/08/18 03:13:36;;;;;;;19.43;12.73;;;;;;;16.33;92.38;96498.69;5075367;28;20209;-63
2021/08/18 03:16:01;;;;;;;18.10;11.80;;;;;;;16.46;91.39;96502.72;5074990;28;20243;-63
2021/08/18 03:18:29;;;;;;;17.93;11.77;;;;;;;16.52;91.43;96508.88;5075632;28;20258;-59
2021/08/18 03:20:54;;;;;;;18.60;12.60;;;;;;;16.65;91.05;96509.19;5075459;28;20273;-63
2021/08/18 03:23:19;;;;;;;19.87;12.30;;;;;;;16.64;90.55;96504.13;5075359;28;20931;-59
2021/08/18 03:25:45;;;;;;;19.03;12.70;;;;;;;16.59;90.85;96512.09;5075178;28;20210;-63
2021/08/18 03:28:10;;;;;;;16.83;11.43;;;;;;;16.60;90.64;96505.72;5075449;28;20174;-63
2021/08/18 03:30:36;;;;;;;15.30;10.80;;;;;;;16.51;91.19;96504.59;5066779;28;20531;-65
2021/08/18 03:33:01;;;;;;;16.63;11.53;;;;;;;16.53;91.36;96505.97;5054964;28;20248;-59
2021/08/18 03:35:27;;;;;;;14.90;10.60;;;;;;;16.61;90.78;96505.47;5055430;28;20211;-63
2021/08/18 03:37:52;;;;;;;18.67;12.33;;;;;;;16.51;91.46;96507.25;5055144;28;20622;-59
2021/08/18 03:40:17;;;;;;;18.40;11.33;;;;;;;16.40;91.82;96509.03;5060271;28;20208;-62
2021/08/18 03:42:43;;;;;;;19.10;12.80;;;;;;;16.36;92.45;96506.09;5074716;28;20175;-59
2021/08/18 03:45:09;;;;;;;15.10;10.60;;;;;;;16.39;91.81;96513.56;5074306;28;20726;-63
2021/08/18 03:47:34;;;;;;;16.97;11.27;;;;;;;16.32;92.20;96509.56;5073348;28;20201;-59
2021/08/18 03:50:00;;;;;;;15.27;10.10;;;;;;;16.39;91.72;96507.47;5054992;28;20501;-63
2021/08/18 03:52:25;;;;;;;19.27;11.03;;;;;;;16.22;92.12;96515.59;5055128;28;20669;-64
2021/08/18 03:54:51;;;;;;;15.00;10.53;;;;;;;16.12;93.25;96512.91;5054439;28;20218;-59
2021/08/18 03:57:16;;;;;;;15.07;10.20;;;;;;;16.19;92.71;96520.63;5055307;28;20225;-59
2021/08/18 03:59:41;;;;;;;14.00;9.30;;;;;;;16.24;92.03;96516.13;5053735;28;20211;-63
2021/08/18 04:02:07;;;;;;;11.17;8.50;;;;;;;16.34;92.19;96512.75;5056705;28;20171;-59
2021/08/18 04:04:32;;;;;;;13.30;9.03;;;;;;;16.13;92.69;96519.78;5070109;28;20198;-63
2021/08/18 04:06:57;;;;;;;14.27;9.97;;;;;;;16.34;92.30;96512.75;5074749;28;20583;-63
2021/08/18 04:09:23;;;;;;;12.30;9.00;;;;;;;16.41;91.87;96515.97;5074761;28;20694;-59
2021/08/18 04:11:48;;;;;;;13.23;8.60;;;;;;;16.48;91.70;96513.09;5074313;28;20198;-63
2021/08/18 04:14:14;;;;;;;13.30;9.20;;;;;;;16.51;91.30;96520.53;5072744;28;20194;-59
2021/08/18 04:16:39;;;;;;;12.80;8.90;;;;;;;16.42;92.10;96523.66;5074371;28;20257;-59
2021/08/18 04:19:04;;;;;;;9.90;8.20;;;;;;;16.44;92.47;96526.84;5060210;28;20214;-59
2021/08/18 04:21:30;;;;;;;11.87;8.23;;;;;;;16.57;92.58;96522.97;5054467;28;20171;-58
2021/08/18 04:23:55;;;;;;;11.97;8.30;;;;;;;16.49;92.42;96515.47;5053923;28;20191;-59
2021/08/18 04:26:21;;;;;;;11.03;8.10;;;;;;;16.30;93.10;96525.72;5053090;28;20171;-63
2021/08/18 04:28:46;;;;;;;11.83;7.70;;;;;;;16.42;93.06;96521.00;5054560;28;20175;-59
2021/08/18 04:31:11;;;;;;;15.00;8.87;;;;;;;16.36;93.35;96527.31;5066592;28;20248;-63
2021/08/18 04:33:37;;;;;;;14.67;8.20;;;;;;;16.33;93.21;96521.75;5073714;28;20170;-63
2021/08/18 04:36:02;;;;;;;11.87;8.70;;;;;;;16.23;93.84;96527.78;5074127;28;20190;-59
2021/08/18 04:38:28;;;;;;;10.20;7.93;;;;;;;16.11;94.71;96518.44;5073960;28;20253;-63
2021/08/18 04:40:53;;;;;;;12.00;8.63;;;;;;;16.12;94.64;96526.16;5073969;28;20194;-63
2021/08/18 04:43:19;;;;;;;10.13;8.10;;;;;;;16.05;95.75;96528.19;5073572;28;20499;-63
2021/08/18 04:45:44;;;;;;;15.17;9.43;;;;;;;16.19;94.96;96525.91;5073285;28;20199;-59
2021/08/18 04:48:10;;;;;;;13.17;9.00;;;;;;;16.29;94.11;96529.41;5074021;28;20664;-63
2021/08/18 04:50:35;;;;;;;11.50;8.17;;;;;;;16.29;94.15;96524.13;5073811;28;20561;-63
2021/08/18 04:53:07;;;;;;;12.13;9.17;;;;;;;16.44;93.77;96529.50;5073540;28;20247;-58
2021/08/18 04:55:32;;;;;;;9.73;7.70;;;;;;;16.44;93.34;96526.84;5073771;28;20695;-63
2021/08/18 04:57:58;;;;;;;11.63;8.67;;;;;;;16.26;93.88;96529.13;5073862;28;20402;-58
2021/08/18 05:00:23;;;;;;;12.43;8.10;;;;;;;16.25;93.75;96532.84;5063141;28;20175;-63
2021/08/18 05:02:48;;;;;;;10.97;8.53;;;;;;;16.05;94.81;96530.84;5053467;28;20565;-63
2021/08/18 05:05:14;;;;;;;10.07;7.07;;;;;;;16.16;94.40;96531.75;5053463;28;20195;-59
2021/08/18 05:07:39;;;;;;;9.20;7.77;;;;;;;15.95;95.55;96535.28;5053628;28;20259;-58
2021/08/18 05:10:05;;;;;;;12.93;8.10;;;;;;;16.02;95.07;96535.88;5053383;28;20225;-63
2021/08/18 05:12:31;;;;;;;11.17;7.30;;;;;;;15.73;95.79;96532.75;5053452;28;20221;-63
2021/08/18 05:14:56;;;;;;;9.40;7.30;;;;;;;15.84;95.84;96531.78;5061501;28;20448;-63
2021/08/18 05:17:22;;;;;;;12.37;7.30;;;;;;;15.45;98.22;96538.34;5072321;28;20178;-64
2021/08/18 05:19:47;;;;;;;10.70;7.10;;;;;;;15.43;98.35;96538.63;5073632;28;20254;-63
2021/08/18 05:22:13;;;;;;;10.77;7.50;;;;;;;15.41;98.44;96531.97;5073699;28;20167;-59
2021/08/18 05:24:38;;;;;;;9.20;7.10;;;;;;;15.48;99.12;96537.84;5052698;28;20214;-59
2021/08/18 05:27:04;;;;;;;8.37;6.93;;;;;;;15.69;98.61;96536.94;5053404;28;20179;-63
2021/08/18 05:29:29;;;;;;;10.80;7.83;;;;;;;15.92;97.19;96544.56;5053481;28;20254;-59
2021/08/18 05:31:55;;;;;;;10.87;7.03;;;;;;;15.80;97.19;96549.22;5053456;28;20199;-63
2021/08/18 05:34:20;;;;;;;7.87;6.27;;;;;;;16.03;96.43;96548.09;5056751;28;20199;-63
2021/08/18 05:36:45;;;;;;;8.17;6.60;;;;;;;16.28;96.23;96545.59;5053360;28;20194;-63
2021/08/18 05:39:11;;;;;;;10.17;6.77;;;;;;;16.39;95.28;96541.94;5053414;28;20206;-59
2021/08/18 05:41:36;;;;;;;8.90;7.00;;;;;;;16.44;94.72;96545.41;5069327;28;20174;-63
2021/08/18 05:44:02;;;;;;;7.30;6.13;;;;;;;16.43;94.47;96543.81;5072883;28;20514;-59
2021/08/18 05:46:27;;;;;;;10.07;6.77;;;;;;;16.32;94.22;96542.16;5073311;28;20249;-63
2021/08/18 05:48:53;;;;;;;11.03;6.17;;;;;;;16.50;94.04;96538.31;5073322;28;20174;-58
2021/08/18 05:51:18;;;;;;;7.47;5.60;;;;;;;16.44;93.56;96544.63;5072322;28;20248;-63
2021/08/18 05:53:49;;;;;;;8.63;6.50;;;;;;;16.65;92.88;96543.66;5072854;28;20178;-58
2021/08/18 05:56:15;;;;;;;12.80;7.23;;;;;;;16.47;93.05;96541.47;5073329;28;20225;-63
2021/08/18 05:58:40;;;;;;;8.47;6.57;;;;;;;16.24;94.57;96541.84;5073167;28;20504;-59
2021/08/18 06:01:06;;;;;;;9.47;6.47;;;;;;;16.60;93.25;96543.66;5073002;28;20511;-59
2021/08/18 06:03:31;;;;;;;7.40;6.33;;;;;;;16.55;93.40;96541.00;5072848;28;20178;-65
2021/08/18 06:05:56;;;;;;;11.20;7.30;;;;;;;16.54;93.75;96543.91;5053093;28;20198;-60
2021/08/18 06:08:22;;;;;;;9.40;5.83;;;;;;;16.51;93.98;96547.84;5053152;28;20325;-63
2021/08/18 06:10:47;;;;;;;8.83;6.13;;;;;;;16.52;93.28;96546.81;5052853;28;20202;-63
2021/08/18 06:13:13;;;;;;;9.53;6.17;;;;;;;16.52;93.71;96548.66;5051362;28;20579;-59
2021/08/18 06:15:39;;;;;;;8.80;6.30;;;;;;;16.45;93.61;96539.03;5052951;28;20527;-58
2021/08/18 06:18:04;;;;;;;8.77;6.73;;;;;;;16.40;94.16;96548.81;5053037;28;20176;-62
2021/08/18 06:20:30;;;;;;;10.20;6.37;;;;;;;16.48;93.53;96545.72;5069682;28;20182;-57
2021/08/18 06:22:55;;;;;;;8.03;6.60;;;;;;;16.45;93.89;96548.84;5072564;28;20634;-58
2021/08/18 06:25:21;;;;;;;10.13;6.07;;;;;;;16.56;93.63;96544.44;5072647;28;20203;-58
2021/08/18 06:27:46;;;;;;;9.90;7.80;;;;;;;16.65;92.84;96548.22;5073022;28;20175;-58
2021/08/18 06:30:12;;;;;;;7.87;5.63;;;;;;;16.49;92.97;96557.94;5072941;28;20525;-62
2021/08/18 06:32:37;;;;;;;7.33;6.10;;;;;;;16.44;93.04;96545.41;5072623;28;20202;-62
2021/08/18 06:35:04;;;;;;;7.10;6.27;;;;;;;16.62;93.03;96546.03;5057150;28;20207;-58
2021/08/18 06:37:30;;;;;;;6.93;5.30;;;;;;;16.53;93.35;96540.44;5055865;28;20252;-59
2021/08/18 06:39:55;;;;;;;7.43;5.90;;;;;;;16.56;93.14;96549.75;5058471;28;20834;-63
2021/08/18 06:42:21;;;;;;;7.80;5.93;;;;;;;16.55;92.74;96553.44;5075642;28;20167;-63
2021/08/18 06:44:48;;;;;;;9.50;5.67;;;;;;;16.56;92.94;96552.41;5075955;28;20286;-57
2021/08/18 06:47:14;;;;;;;9.37;6.10;;;;;;;16.42;94.43;96541.41;5076401;28;20560;-58
2021/08/18 06:49:39;;;;;;;6.23;5.20;;;;;;;16.53;93.35;96540.44;5076367;28;20495;-62
2021/08/18 06:52:05;;;;;;;10.40;6.03;;;;;;;16.74;92.68;96552.72;5076269;28;20199;-58
2021/08/18 06:54:30;;;;;;;7.10;5.40;;;;;;;16.71;93.02;96547.16;5075676;28;20687;-62
2021/08/18 06:56:57;;;;;;;5.60;4.90;;;;;;;16.68;92.63;96550.31;5071842;28;20186;-62
2021/08/18 06:59:22;;;;;;;7.43;5.30;;;;;;;16.72;92.25;96551.41;5056057;28;20182;-62
2021/08/18 07:01:47;;;;;;;7.87;5.57;;;;;;;16.71;92.96;96544.50;5056044;28;20410;-62
2021/08/18 07:04:13;;;;;;;5.40;4.63;;;;;;;16.76;92.74;96550.63;5055565;28;20617;-62
2021/08/18 07:06:39;;;;;;;6.50;5.20;;;;;;;17.03;91.97;96545.94;5055954;28;20183;-58
2021/08/18 07:09:04;;;;;;;7.70;4.80;;;;;;;16.86;92.62;96552.53;5055800;28;20248;-58
2021/08/18 07:11:29;;;;;;;5.47;4.83;;;;;;;16.98;92.64;96553.91;5058104;28;20203;-62
2021/08/18 07:13:59;;;;;;;5.50;4.57;;;;;;;16.97;91.89;96552.31;5068729;28;20262;-62
2021/08/18 07:16:25;;;;;;;7.23;5.27;;;;;;;16.74;92.70;96550.06;5055877;28;20167;-62
2021/08/18 07:18:51;;;;;;;6.30;4.63;;;;;;;16.93;92.20;96555.72;5055826;28;20447;-62
2021/08/18 07:21:20;;;;;;;5.40;4.80;;;;;;;17.02;90.78;96551.50;5055583;28;20476;-62
2021/08/18 07:23:49;;;;;;;5.63;4.10;;;;;;;16.88;91.63;96553.88;5055216;28;20193;-62
2021/08/18 07:26:15;;;;;;;5.20;4.40;;;;;;;17.09;90.70;96549.41;5075541;28;20776;-62
2021/08/18 07:28:41;;;;;;;5.13;4.20;;;;;;;16.91;92.35;96552.53;5078692;28;20451;-62
2021/08/18 07:31:06;;;;;;;5.03;4.13;;;;;;;16.86;92.31;96541.91;5075476;28;20452;-62
2021/08/18 07:33:32;;;;;;;8.43;4.27;;;;;;;16.96;92.17;96541.94;5074837;28;20174;-61
2021/08/18 07:35:57;;;;;;;4.87;4.30;;;;;;;17.01;92.19;96540.09;5073947;28;20194;-58
2021/08/18 07:38:22;;;;;;;7.73;4.60;;;;;;;17.23;91.68;96542.53;5075314;28;20412;-62
2021/08/18 07:40:48;;;;;;;4.27;3.87;;;;;;;17.41;90.58;96542.06;5075373;28;20541;-62
2021/08/18 07:43:13;;;;;;;4.77;3.63;;;;;;;17.29;90.36;96542.28;5074762;28;20224;-62
2021/08/18 07:45:39;;;;;;;5.73;3.50;;;;;;;17.31;90.60;96536.72;5075384;28;20195;-59
2021/08/18 07:48:05;;;;;;;4.70;4.00;;;;;;;17.51;90.95;96539.44;5074739;28;20202;-59
2021/08/18 07:50:30;;;;;;;4.00;3.30;;;;;;;17.55;90.34;96535.19;5068754;28;20232;-60
2021/08/18 07:52:56;;;;;;;5.07;3.60;;;;;;;17.55;90.02;96537.84;5063400;28;20426;-60
2021/08/18 07:55:21;;;;;;;7.70;3.97;;;;;;;17.81;89.26;96542.09;5054841;28;20198;-59
2021/08/18 07:57:46;;;;;;;5.10;3.03;;;;;;;17.73;88.09;96539.97;5060161;28;20178;-60
2021/08/18 08:00:12;;;;;;;3.90;3.13;;;;;;;17.74;88.37;96535.44;5075085;28;20204;-59
2021/08/18 08:02:41;;;;;;;3.20;2.90;;;;;;;17.84;87.82;96538.91;5074650;28;20163;-59
2021/08/18 08:05:07;;;;;;;2.70;2.50;;;;;;;17.94;88.19;96538.91;5073385;28;20655;-59
2021/08/18 08:07:33;;;;;;;2.80;2.10;;;;;;;18.10;88.22;96542.34;5074900;28;20413;-59
2021/08/18 08:09:58;;;;;;;3.73;2.03;;;;;;;18.15;87.94;96542.34;5060031;28;20559;-61
2021/08/18 08:12:24;;;;;;;1.70;1.60;;;;;;;18.18;86.90;96545.25;5054661;28;20200;-60
2021/08/18 08:14:49;;;;;;;1.40;1.30;;;;;;;18.17;86.47;96551.63;5054082;28;20261;-58
2021/08/18 08:17:14;;;;;;;2.10;1.50;;;;;;;17.91;85.95;96543.94;5050887;28;20175;-59
2021/08/18 08:19:40;;;;;;;2.00;1.50;;;;;;;18.20;85.55;96543.13;5051071;28;20305;-59
2021/08/18 08:22:05;;;;;;;1.77;1.67;;;;;;;18.17;86.93;96546.31;5051052;28;20183;-59
2021/08/18 08:24:31;;;;;;;1.50;1.40;;;;;;;18.38;85.57;96547.06;5052441;28;20219;-59
2021/08/18 08:26:56;;;;;;;1.37;1.27;;;;;;;18.34;84.08;96543.34;5051050;28;20171;-59
2021/08/18 08:29:21;;;;;;;1.27;1.17;;;;;;;18.35;83.86;96540.41;5085717;28;20174;-59
2021/08/18 08:31:47;;;;;;;1.30;1.20;;;;;;;18.16;84.90;96550.03;5088956;28;20219;-59
2021/08/18 08:34:13;;;;;;;1.10;1.00;;;;;;;18.58;84.41;96546.25;5070220;28;20195;-60
2021/08/18 08:36:39;;;;;;;1.90;1.47;;;;;;;18.55;84.18;96539.63;5070746;28;20175;-59
2021/08/18 08:39:04;;;;;;;1.17;0.90;;;;;;;18.82;84.21;96544.56;5070740;28;20413;-58
2021/08/18 08:41:32;;;;;;;1.20;1.10;;;;;;;18.63;82.73;96549.69;5073048;28;20793;-60
2021/08/18 08:43:58;;;;;;;0.83;0.83;;;;;;;18.72;82.98;96544.59;5070085;28;20914;-60
2021/08/18 08:46:24;;;;;;;0.87;0.87;;;;;;;18.89;82.73;96548.53;5070435;28;20413;-59
2021/08/18 08:48:49;;;;;;;1.33;1.17;;;;;;;18.99;82.51;96545.81;5064755;28;20179;-60
2021/08/18 08:51:15;;;;;;;0.70;0.70;;;;;;;18.87;83.00;96547.22;5050437;28;20286;-59
2021/08/18 08:53:41;;;;;;;1.43;1.07;;;;;;;18.88;82.52;96556.81;5049707;28;20187;-59
2021/08/18 08:56:07;;;;;;;0.90;0.90;;;;;;;19.12;82.63;96545.22;5050526;28;20449;-59
2021/08/18 08:58:33;;;;;;;0.93;0.70;;;;;;;18.82;82.11;96555.22;5089243;28;20595;-59
2021/08/18 09:00:58;;;;;;;1.10;1.00;;;;;;;18.70;82.28;96544.09;5090566;28;20492;-60
2021/08/18 09:03:24;;;;;;;3.27;0.67;;;;;;;18.51;83.17;96557.19;5074935;28;20175;-60
2021/08/18 09:05:50;;;;;;;1.73;0.67;;;;;;;18.68;82.80;96549.66;5060447;28;20731;-60
2021/08/18 09:08:21;;;;;;;0.93;0.77;;;;;;;18.51;84.16;96553.72;5053213;28;20190;-60
2021/08/18 09:11:08;;;;;;;1.77;0.67;;;;;;;18.79;83.37;96555.78;5090307;28;20971;-59
2021/08/18 09:13:58;;;;;;;0.50;0.50;;;;;;;18.86;81.63;96551.72;5082924;28;20923;-60
2021/08/18 09:16:33;;;;;;;0.70;0.57;;;;;;;18.92;81.63;96555.16;5068195;28;20447;-60
2021/08/18 09:18:58;;;;;;;1.10;0.60;;;;;;;18.59;82.64;96556.63;5070093;28;20504;-58
2021/08/18 09:21:36;;;;;;;1.33;0.80;;;;;;;18.83;82.05;96557.59;5069286;28;20508;-60
2021/08/18 09:24:23;;;;;;;0.60;0.60;;;;;;;19.01;81.58;96545.53;5048757;28;20247;-59
2021/08/18 09:26:52;;;;;;;0.70;0.70;;;;;;;18.88;82.42;96549.59;5053568;28;20408;-61
2021/08/18 09:29:32;;;;;;;0.80;0.80;;;;;;;18.82;84.08;96556.03;5053469;28;20410;-61
2021/08/18 09:32:37;;;;;;;0.63;0.57;;;;;;;18.74;83.08;96553.91;5081407;28;20486;-61
2021/08/18 09:35:04;;;;;;;0.70;0.70;;;;;;;18.99;82.44;96553.00;5053414;28;20802;-59
2021/08/18 09:37:31;;;;;;;0.70;0.70;;;;;;;19.11;82.33;96550.81;5053450;28;20441;-59
2021/08/18 09:39:58;;;;;;;0.80;0.50;;;;;;;19.26;82.46;96548.88;5053353;28;20398;-61
2021/08/18 09:42:33;;;;;;;0.50;0.50;;;;;;;19.31;80.55;96542.75;5053467;28;20402;-61
2021/08/18 09:45:13;;;;;;;0.73;0.53;;;;;;;19.40;80.03;96546.44;5052884;28;20429;-61
2021/08/18 09:47:59;;;;;;;0.50;0.50;;;;;;;19.30;79.92;96544.59;5058163;28;20417;-59
2021/08/18 09:50:28;;;;;;;0.70;0.70;;;;;;;19.11;80.85;96548.16;5073389;28;20487;-61
2021/08/18 09:53:05;;;;;;;0.60;0.60;;;;;;;18.81;81.24;96548.28;5066774;28;20552;-63
2021/08/18 09:55:30;;;;;;;1.70;0.50;;;;;;;19.02;80.96;96544.47;5068205;28;20463;-61
2021/08/18 09:57:56;;;;;;;1.27;0.57;;;;;;;19.06;80.10;96550.88;5073290;28;20896;-59
2021/08/18 10:00:21;;;;;;;0.70;0.60;;;;;;;19.00;81.21;96543.97;5073202;28;20194;-61
2021/08/18 10:02:48;;;;;;;0.67;0.67;;;;;;;19.18;81.16;96535.34;5072831;28;20197;-59
2021/08/18 10:05:13;;;;;;;0.60;0.50;;;;;;;19.26;82.25;96540.88;5091999;28;20213;-60
2021/08/18 10:07:39;;;;;;;1.20;0.50;;;;;;;19.34;81.11;96543.00;5093275;28;20759;-58
2021/08/18 10:10:05;;;;;;;0.70;0.70;;;;;;;19.60;80.24;96542.81;5079476;28;20191;-61
2021/08/18 10:12:31;;;;;;;0.53;0.53;;;;;;;19.68;77.25;96536.88;5073066;28;20666;-61
2021/08/18 10:15:01;;;;;;;0.80;0.80;;;;;;;19.86;76.76;96537.00;5056480;28;20195;-59
2021/08/18 10:17:30;;;;;;;0.83;0.83;;;;;;;19.78;76.76;96537.63;5067452;28;20413;-60
2021/08/18 10:19:56;;;;;;;0.80;0.80;;;;;;;20.01;78.38;96539.56;5073607;28;20818;-60
2021/08/18 10:22:27;;;;;;;1.10;1.00;;;;;;;20.23;75.13;96539.09;5056773;28;20394;-60
2021/08/18 10:24:53;;;;;;;0.83;0.83;;;;;;;20.00;74.11;96542.50;5056267;28;20450;-60
2021/08/18 10:27:47;;;;;;;0.93;0.93;;;;;;;19.96;74.86;96538.81;5056640;28;20413;-60
2021/08/18 10:30:23;;;;;;;0.73;0.73;;;;;;;20.05;74.20;96537.13;5056617;28;20195;-60
2021/08/18 10:32:50;;;;;;;0.93;0.90;;;;;;;20.21;74.44;96531.38;5056220;28;20457;-60
2021/08/18 10:35:34;;;;;;;1.23;1.00;;;;;;;20.04;74.88;96543.50;5064818;28;20433;-59
2021/08/18 10:38:24;;;;;;;1.03;0.93;;;;;;;20.03;75.25;96540.06;5076613;28;20890;-60
2021/08/18 10:40:52;;;;;;;1.30;1.20;;;;;;;20.15;74.66;96532.47;5076587;28;20455;-58
2021/08/18 10:43:52;;;;;;;0.93;0.90;;;;;;;20.25;74.14;96534.28;5076086;28;20500;-60
2021/08/18 10:46:18;;;;;;;0.80;0.80;;;;;;;20.26;74.31;96536.66;5076543;28;20416;-58
2021/08/18 10:48:55;;;;;;;1.27;0.80;;;;;;;20.20;73.95;96535.13;5076574;28;20405;-62
2021/08/18 10:51:39;;;;;;;0.83;0.83;;;;;;;20.20;73.29;96531.69;5060952;28;20205;-57
2021/08/18 10:54:29;;;;;;;1.00;0.90;;;;;;;20.35;73.47;96542.97;5055977;28;20414;-62
2021/08/18 10:57:00;;;;;;;0.70;0.70;;;;;;;20.26;73.66;96523.31;5056354;28;20389;-62
2021/08/18 10:59:49;;;;;;;2.10;1.00;;;;;;;20.29;73.71;96524.66;5074890;28;20929;-62
2021/08/18 11:02:52;;;;;;;0.80;0.80;;;;;;;20.36;75.99;96520.53;5096577;28;20488;-59
2021/08/18 11:05:20;;;;;;;1.20;0.93;;;;;;;20.29;74.84;96516.63;5086556;28;20436;-58
2021/08/18 11:08:03;;;;;;;1.13;1.10;;;;;;;20.33;73.58;96521.13;5076148;28;20401;-59
2021/08/18 11:10:30;;;;;;;0.90;0.90;;;;;;;20.66;74.36;96522.09;5076046;28;20402;-62
2021/08/18 11:12:57;;;;;;;1.10;1.00;;;;;;;20.29;73.94;96525.41;5075099;28;20471;-62
2021/08/18 11:15:28;;;;;;;1.00;0.90;;;;;;;20.57;74.59;96526.47;5075856;28;20429;-59
2021/08/18 11:17:56;;;;;;;1.30;1.10;;;;;;;20.52;75.46;96531.88;5074440;28;20765;-62
2021/08/18 11:20:29;;;;;;;0.97;0.97;;;;;;;20.75;75.92;96524.91;5076079;28;20413;-60
2021/08/18 11:22:55;;;;;;;1.23;1.10;;;;;;;20.88;75.82;96530.38;5074780;28;20409;-66
2021/08/18 11:25:21;;;;;;;1.30;1.20;;;;;;;21.00;76.30;96525.41;5075449;28;20910;-65
2021/08/18 11:27:47;;;;;;;1.00;1.00;;;;;;;21.15;76.14;96517.22;5074955;28;20638;-61